createdAt,value
2022-09-07T00:22:36.341Z,17.91
2022-09-07T00:25:07.163Z,17.89
2022-09-07T00:32:51.816Z,17.77
2022-09-07T01:30:01.204Z,16.90
2022-09-07T01:50:23.371Z,16.59
2022-09-07T01:53:17.576Z,16.62
2022-09-07T01:56:39.994Z,16.62
2022-09-07T02:00:36.667Z,16.56
2022-09-07T02:03:09.784Z,16.59
2022-09-07T02:18:23.083Z,16.50
2022-09-07T02:39:06.294Z,16.31
2022-09-07T02:42:06.230Z,16.22
2022-09-07T04:09:20.521Z,15.67
2022-09-07T04:21:21.163Z,15.66
2022-09-07T04:31:49.801Z,15.47
2022-09-07T04:38:43.896Z,15.47
2022-09-07T04:41:25.403Z,15.57
2022-09-07T04:43:58.806Z,15.60
2022-09-07T04:49:37.087Z,15.74
2022-09-07T04:52:22.609Z,15.63
2022-09-07T04:54:56.223Z,15.51
2022-09-07T04:57:27.971Z,15.55
2022-09-07T05:00:08.216Z,15.51
2022-09-07T05:02:37.067Z,15.54
2022-09-07T05:05:11.247Z,15.61
2022-09-07T05:07:44.408Z,15.60
2022-09-07T05:10:22.189Z,15.50
2022-09-07T05:12:54.442Z,15.48
2022-09-07T05:15:30.586Z,15.52
2022-09-07T05:17:59.772Z,15.53
2022-09-07T05:20:31.754Z,15.57
2022-09-07T05:23:14.076Z,15.62
2022-09-07T05:25:48.072Z,15.60
2022-09-07T05:28:19.551Z,15.65
2022-09-07T05:36:47.242Z,15.62
2022-09-07T05:39:17.001Z,15.59
2022-09-07T05:41:48.196Z,15.64
2022-09-07T05:47:13.771Z,15.62
2022-09-07T05:49:43.483Z,15.59
2022-09-07T05:52:15.902Z,15.59
2022-09-07T05:54:44.418Z,15.61
2022-09-07T05:57:18.598Z,15.70
2022-09-07T05:59:46.596Z,15.71
2022-09-07T06:02:17.201Z,15.78
2022-09-07T06:04:48.757Z,15.88
2022-09-07T06:07:23.420Z,15.98
2022-09-07T06:12:52.692Z,15.92
2022-09-07T06:15:24.051Z,15.98
2022-09-07T06:17:59.795Z,16.08
2022-09-07T06:20:31.725Z,16.16
2022-09-07T06:23:10.594Z,16.18
2022-09-07T06:25:50.433Z,16.26
2022-09-07T06:28:21.080Z,16.24
2022-09-07T06:30:55.363Z,16.26
2022-09-07T06:33:23.479Z,16.31
2022-09-07T06:36:02.511Z,16.35
2022-09-07T06:38:34.172Z,16.41
2022-09-07T06:44:09.599Z,16.57
2022-09-07T06:49:31.995Z,16.70
2022-09-07T06:52:05.419Z,16.71
2022-09-07T06:57:24.128Z,16.78
2022-09-07T06:59:53.373Z,16.82
2022-09-07T07:02:23.184Z,16.89
2022-09-07T07:04:54.272Z,16.93
2022-09-07T07:07:25.369Z,16.98
2022-09-07T07:09:53.303Z,17.01
2022-09-07T07:14:46.997Z,17.09
2022-09-07T07:17:16.808Z,17.11
2022-09-07T07:19:44.549Z,17.17
2022-09-07T07:22:35.920Z,17.27
2022-09-07T07:24:59.665Z,17.34
2022-09-07T07:27:27.230Z,17.35
2022-09-07T07:29:54.993Z,17.40
2022-09-07T07:32:22.962Z,17.41
2022-09-07T07:34:50.725Z,17.46
2022-09-07T07:44:09.519Z,17.69
2022-09-07T07:46:40.317Z,17.79
2022-09-07T07:49:10.853Z,17.93
2022-09-07T07:54:24.342Z,18.13
2022-09-07T07:56:53.040Z,18.23
2022-09-07T07:59:21.746Z,18.28
2022-09-07T08:01:49.712Z,18.30
2022-09-07T08:04:17.455Z,18.31
2022-09-07T08:06:45.253Z,18.32
2022-09-07T08:09:12.894Z,18.37
2022-09-07T08:11:40.651Z,18.42
2022-09-07T08:14:09.568Z,18.51
2022-09-07T08:16:38.416Z,18.58
2022-09-07T08:19:07.400Z,18.67
2022-09-07T08:21:35.375Z,18.76
2022-09-07T08:24:05.562Z,18.85
2022-09-07T08:26:33.533Z,18.89
2022-09-07T08:29:04.084Z,18.98
2022-09-07T08:34:15.624Z,19.16
2022-09-07T08:36:45.614Z,19.28
2022-09-07T08:39:13.884Z,19.36
2022-09-07T08:42:38.912Z,19.46
2022-09-07T08:45:15.995Z,19.61
2022-09-07T08:47:52.592Z,19.71
2022-09-07T08:50:44.674Z,19.78
2022-09-07T08:53:36.773Z,19.91
2022-09-07T08:56:12.454Z,20.00
2022-09-07T08:58:49.631Z,20.10
2022-09-07T09:01:31.453Z,20.18
2022-09-07T09:04:18.155Z,20.27
2022-09-07T09:07:19.510Z,20.43
2022-09-07T09:10:20.334Z,20.49
2022-09-07T09:13:06.023Z,20.65
2022-09-07T09:16:07.347Z,20.73
2022-09-07T09:18:47.953Z,20.85
2022-09-07T09:21:20.061Z,20.92
2022-09-07T09:23:50.448Z,21.00
2022-09-07T09:26:33.902Z,21.13
2022-09-07T09:29:23.621Z,21.16
2022-09-07T09:31:56.160Z,21.21
2022-09-07T09:34:29.406Z,21.29
2022-09-07T09:37:00.586Z,21.36
2022-09-07T09:39:38.378Z,21.44
2022-09-07T09:42:34.147Z,21.52
2022-09-07T09:45:29.297Z,21.64
2022-09-07T09:48:04.105Z,21.73
2022-09-07T09:53:33.356Z,21.96
2022-09-07T09:56:04.503Z,22.05
2022-09-07T10:18:44.018Z,22.98
2022-09-07T10:24:05.460Z,23.25
2022-09-07T10:26:37.695Z,23.33
2022-09-07T10:29:17.357Z,23.47
2022-09-07T10:32:05.783Z,23.64
2022-09-07T10:35:05.265Z,23.74
2022-09-07T10:37:50.907Z,23.81
2022-09-07T10:40:38.107Z,23.81
2022-09-07T10:43:38.953Z,23.79
2022-09-07T10:49:35.616Z,23.75
2022-09-07T10:52:20.666Z,23.77
2022-09-07T10:58:14.440Z,23.71
2022-09-07T11:01:07.039Z,23.79
2022-09-07T11:03:49.611Z,23.80
2022-09-07T11:06:23.268Z,23.72
2022-09-07T11:09:34.874Z,23.77
2022-09-07T11:12:14.014Z,23.79
2022-09-07T11:15:16.285Z,23.84
2022-09-07T11:17:57.187Z,23.90
2022-09-07T11:20:38.795Z,23.99
2022-09-07T11:23:18.895Z,23.98
2022-09-07T11:26:19.534Z,24.04
2022-09-07T11:31:48.894Z,24.21
2022-09-07T11:34:24.531Z,24.30
2022-09-07T11:37:02.869Z,24.39
2022-09-07T11:40:04.363Z,24.49
2022-09-07T11:42:50.339Z,24.64
2022-09-07T11:45:34.243Z,24.77
2022-09-07T11:48:31.379Z,24.92
2022-09-07T11:51:25.450Z,24.94
2022-09-07T11:54:04.009Z,24.93
2022-09-07T11:56:37.543Z,24.99
2022-09-07T11:59:36.992Z,24.95
2022-09-07T12:02:48.407Z,24.94
2022-09-07T12:05:53.854Z,24.96
2022-09-07T12:09:02.961Z,24.98
2022-09-07T12:11:38.352Z,25.04
2022-09-07T12:14:15.808Z,25.06
2022-09-07T12:17:01.883Z,25.08
2022-09-07T12:19:30.281Z,25.16
2022-09-07T12:21:59.976Z,25.16
2022-09-07T12:24:47.347Z,25.23
2022-09-07T12:27:30.055Z,25.40
2022-09-07T12:30:05.898Z,25.58
2022-09-07T12:32:56.171Z,25.72
2022-09-07T12:35:32.769Z,25.72
2022-09-07T12:38:31.527Z,25.75
2022-09-07T12:41:22.027Z,25.82
2022-09-07T12:43:54.819Z,25.85
2022-09-07T12:46:35.799Z,25.86
2022-09-07T12:49:09.874Z,25.88
2022-09-07T12:54:39.531Z,25.86
2022-09-07T12:57:29.695Z,25.78
2022-09-07T13:00:07.649Z,25.64
2022-09-07T13:09:24.655Z,25.47
2022-09-07T13:11:53.167Z,25.49
2022-09-07T13:14:34.508Z,25.45
2022-09-07T13:17:36.527Z,25.41
2022-09-07T13:20:07.469Z,25.36
2022-09-07T13:22:35.418Z,25.36
2022-09-07T13:26:01.835Z,25.35
2022-09-07T13:28:54.966Z,25.31
2022-09-07T13:35:08.321Z,25.23
2022-09-07T13:41:23.738Z,25.26
2022-09-07T13:43:59.104Z,25.32
2022-09-07T13:47:07.052Z,25.44
2022-09-07T13:57:58.805Z,26.62
2022-09-07T14:01:05.738Z,26.93
2022-09-07T14:04:30.816Z,27.29
2022-09-07T14:07:37.065Z,27.44
2022-09-07T14:10:29.377Z,27.31
2022-09-07T14:13:37.269Z,27.14
2022-09-07T14:16:44.161Z,26.99
2022-09-07T14:26:38.982Z,27.03
2022-09-07T14:29:06.681Z,27.05
2022-09-07T14:32:14.551Z,27.01
2022-09-07T14:37:39.927Z,26.75
2022-09-07T14:40:31.552Z,26.65
2022-09-07T14:50:10.712Z,26.24
2022-09-07T14:53:40.948Z,26.21
2022-09-07T14:59:57.720Z,26.12
2022-09-07T15:02:46.929Z,26.08
2022-09-07T15:05:39.600Z,26.05
2022-09-07T15:11:39.322Z,26.08
2022-09-07T15:14:36.382Z,26.09
2022-09-07T15:21:24.716Z,26.57
2022-09-07T15:24:35.555Z,26.77
2022-09-07T15:31:40.524Z,26.75
2022-09-07T15:33:55.036Z,26.65
2022-09-07T15:36:39.009Z,26.65
2022-09-07T15:40:11.263Z,27.01
2022-09-07T15:43:08.519Z,27.43
2022-09-07T15:45:39.678Z,27.75
2022-09-07T15:48:28.319Z,28.20
2022-09-07T15:55:06.245Z,28.20
2022-09-07T15:57:59.519Z,27.80
2022-09-07T16:04:54.622Z,27.41
2022-09-07T16:13:18.204Z,26.81
2022-09-07T16:18:31.365Z,26.66
2022-09-07T16:18:46.555Z,26.45
2022-09-07T16:21:17.095Z,26.42
2022-09-07T16:23:56.310Z,26.29
2022-09-07T16:26:27.180Z,26.21
2022-09-07T16:28:58.841Z,26.08
2022-09-07T16:31:32.566Z,25.91
2022-09-07T16:34:25.463Z,25.81
2022-09-07T16:36:54.633Z,25.83
2022-09-07T16:39:27.055Z,25.83
2022-09-07T16:42:18.251Z,25.72
2022-09-07T16:44:53.742Z,25.64
2022-09-07T16:47:50.905Z,25.59
2022-09-07T16:50:27.728Z,25.48
2022-09-07T16:53:02.889Z,25.40
2022-09-07T16:55:52.247Z,25.31
2022-09-07T16:58:36.959Z,25.32
2022-09-07T17:01:19.845Z,25.29
2022-09-07T17:04:06.677Z,25.25
2022-09-07T17:06:38.611Z,25.17
2022-09-07T17:09:27.688Z,25.15
2022-09-07T17:12:03.627Z,25.16
2022-09-07T17:14:38.441Z,25.09
2022-09-07T17:17:13.353Z,25.00
2022-09-07T17:19:46.939Z,24.92
2022-09-07T17:22:14.923Z,24.90
2022-09-07T17:24:50.497Z,24.88
2022-09-07T17:30:00.033Z,24.67
2022-09-07T17:32:33.911Z,24.67
2022-09-07T17:35:10.481Z,24.69
2022-09-07T17:38:00.943Z,24.71
2022-09-07T17:40:44.290Z,24.62
2022-09-07T17:46:10.578Z,24.40
2022-09-07T17:49:10.478Z,24.31
2022-09-07T17:52:26.308Z,24.08
2022-09-07T17:55:09.330Z,23.93
2022-09-07T17:58:24.659Z,23.80
2022-09-07T18:01:23.946Z,23.68
2022-09-07T18:07:04.599Z,23.57
2022-09-07T18:12:17.223Z,23.22
2022-09-07T18:18:30.610Z,23.13
2022-09-07T18:21:28.081Z,23.01
2022-09-07T18:36:59.013Z,22.95
2022-09-07T18:46:22.862Z,22.74
2022-09-07T18:48:58.232Z,22.69
2022-09-07T18:55:29.254Z,22.59
2022-09-07T19:01:20.396Z,22.37
2022-09-07T19:07:29.846Z,22.26
2022-09-07T19:10:41.280Z,22.21
2022-09-07T19:16:25.282Z,22.13
2022-09-07T19:19:57.283Z,22.11
2022-09-07T19:26:20.839Z,21.95
2022-09-07T19:28:47.959Z,21.94
2022-09-07T19:34:44.631Z,21.79
2022-09-07T19:37:28.222Z,21.72
2022-09-07T19:43:34.739Z,21.79
2022-09-07T19:49:17.595Z,21.87
2022-09-07T19:52:17.530Z,21.80
2022-09-07T19:55:09.235Z,21.70
2022-09-07T19:58:33.043Z,21.66
2022-09-07T20:01:16.685Z,21.66
2022-09-07T20:04:24.627Z,21.66
2022-09-07T20:10:43.390Z,21.54
2022-09-07T20:13:28.542Z,21.57
2022-09-07T20:16:04.758Z,21.57
2022-09-07T20:19:05.655Z,21.44
2022-09-07T20:24:45.135Z,21.26
2022-09-07T20:27:22.608Z,21.25
2022-09-07T20:29:56.352Z,21.24
2022-09-07T20:32:29.166Z,21.20
2022-09-07T20:35:05.784Z,21.19
2022-09-07T20:38:14.943Z,21.14
2022-09-07T20:40:26.270Z,21.08
2022-09-07T20:42:59.085Z,21.04
2022-09-07T20:45:44.399Z,20.97
2022-09-07T20:48:15.776Z,20.93
2022-09-07T20:53:53.382Z,20.78
2022-09-07T20:56:30.558Z,20.73
2022-09-07T20:59:12.652Z,20.78
2022-09-07T21:01:45.500Z,20.75
2022-09-07T21:04:18.359Z,20.65
2022-09-07T21:07:00.776Z,20.57
2022-09-07T21:09:32.308Z,20.47
2022-09-07T21:12:02.737Z,20.51
2022-09-07T21:17:34.329Z,20.45
2022-09-07T21:20:10.554Z,20.42
2022-09-07T21:22:44.804Z,20.40
2022-09-07T21:25:25.610Z,20.37
2022-09-07T21:28:01.961Z,20.37
2022-09-07T21:33:40.312Z,20.21
2022-09-07T21:36:26.325Z,20.18
2022-09-07T21:39:02.604Z,20.21
2022-09-07T21:44:28.116Z,20.27
2022-09-07T21:47:08.272Z,20.31
2022-09-07T21:49:56.642Z,20.26
2022-09-07T21:52:25.820Z,20.22
2022-09-07T21:54:54.409Z,20.19
2022-09-07T21:57:24.044Z,20.17
2022-09-07T21:59:56.738Z,20.21
2022-09-07T22:02:30.826Z,20.18
2022-09-07T22:05:07.401Z,20.19
2022-09-07T22:07:50.512Z,20.15
2022-09-07T22:10:19.654Z,20.07
2022-09-07T22:12:50.643Z,20.01
2022-09-07T22:15:22.910Z,19.90
2022-09-07T22:17:56.330Z,19.83
2022-09-07T22:20:29.681Z,19.81
2022-09-07T22:23:50.623Z,19.82
2022-09-07T22:26:25.794Z,19.86
2022-09-07T22:28:58.193Z,19.87
2022-09-07T22:31:37.784Z,19.81
2022-09-07T22:34:13.884Z,19.76
2022-09-07T22:36:50.452Z,19.70
2022-09-07T22:39:21.273Z,19.66
2022-09-07T22:41:55.184Z,19.57
2022-09-07T22:44:24.831Z,19.58
2022-09-07T22:46:57.286Z,19.56
2022-09-07T22:49:29.359Z,19.51
2022-09-07T22:52:01.099Z,19.43
2022-09-07T22:54:33.834Z,19.43
2022-09-07T22:57:06.029Z,19.48
2022-09-07T22:59:36.558Z,19.45
2022-09-07T23:02:07.021Z,19.36
2022-09-07T23:04:38.606Z,19.29
2022-09-07T23:07:13.391Z,19.22
2022-09-07T23:09:43.695Z,19.27
2022-09-07T23:12:15.834Z,19.30
2022-09-07T23:14:45.623Z,19.17
2022-09-07T23:17:21.034Z,19.14
2022-09-07T23:23:16.117Z,19.07
2022-09-07T23:25:51.589Z,19.00
2022-09-07T23:31:25.320Z,18.92
2022-09-07T23:36:55.435Z,18.83
2022-09-07T23:39:53.569Z,18.86
2022-09-07T23:42:26.336Z,18.86
2022-09-07T23:45:00.538Z,18.85
2022-09-07T23:47:30.480Z,18.82
2022-09-07T23:50:06.379Z,18.82
2022-09-07T23:52:52.403Z,18.78
2022-09-07T23:55:27.404Z,18.77
2022-09-07T23:58:01.277Z,18.72
